createdAt,value
2022-10-19T05:13:28.957Z,100.00
2022-10-19T05:20:00.436Z,100.00
2022-10-19T05:23:06.368Z,100.00
2022-10-19T05:26:11.269Z,100.00
2022-10-19T05:33:02.170Z,100.00
2022-10-19T05:36:21.916Z,100.00
2022-10-19T05:39:24.554Z,100.00
2022-10-19T05:42:28.347Z,100.00
2022-10-19T05:45:30.874Z,100.00
2022-10-19T05:48:37.155Z,100.00
2022-10-19T05:51:58.161Z,100.00
2022-10-19T05:55:00.909Z,100.00
2022-10-19T05:58:03.385Z,100.00
2022-10-19T06:01:06.219Z,100.00
2022-10-19T06:04:10.844Z,100.00
2022-10-19T06:07:13.448Z,100.00
2022-10-19T06:10:16.373Z,100.00
2022-10-19T06:13:19.641Z,100.00
2022-10-19T06:16:24.524Z,100.00
2022-10-19T06:19:26.941Z,100.00
2022-10-19T06:22:29.856Z,100.00
2022-10-19T06:25:33.521Z,100.00
2022-10-19T06:28:38.326Z,100.00
2022-10-19T06:31:47.676Z,100.00
2022-10-19T06:35:26.186Z,100.00
2022-10-19T06:38:28.883Z,100.00
2022-10-19T06:41:35.071Z,100.00
2022-10-19T06:44:38.242Z,100.00
2022-10-19T06:47:41.021Z,100.00
2022-10-19T06:50:43.633Z,100.00
2022-10-19T06:53:46.472Z,100.00
2022-10-19T06:59:53.701Z,100.00
2022-10-19T07:02:58.109Z,100.00
2022-10-19T07:06:03.791Z,100.00
2022-10-19T07:09:06.703Z,100.00
2022-10-19T07:12:10.883Z,100.00
2022-10-19T07:15:13.487Z,100.00
2022-10-19T07:18:16.705Z,100.00
2022-10-19T07:21:21.744Z,100.00
2022-10-19T07:24:25.205Z,97.14
2022-10-19T07:27:28.116Z,91.12
2022-10-19T07:30:31.173Z,80.28
2022-10-19T07:33:35.280Z,67.15
2022-10-19T07:37:02.642Z,64.72
2022-10-19T07:40:05.589Z,64.59
2022-10-19T07:43:08.403Z,65.87
2022-10-19T07:46:14.027Z,64.90
2022-10-19T07:49:19.048Z,52.41
2022-10-19T07:52:21.597Z,44.80
2022-10-19T07:55:25.665Z,38.23
2022-10-19T07:58:28.104Z,42.01
2022-10-19T08:01:33.477Z,39.61
2022-10-19T08:08:01.102Z,36.10
2022-10-19T08:11:08.373Z,34.05
2022-10-19T08:14:10.797Z,45.48
2022-10-19T08:17:16.905Z,46.33
2022-10-19T08:20:19.770Z,48.42
2022-10-19T08:23:27.403Z,49.95
2022-10-19T08:26:31.063Z,46.53
2022-10-19T08:29:33.979Z,40.76
2022-10-19T08:32:37.378Z,39.09
2022-10-19T08:35:40.165Z,37.04
2022-10-19T08:38:44.787Z,41.58
2022-10-19T08:42:01.132Z,44.18
2022-10-19T08:45:19.153Z,46.09
2022-10-19T08:48:36.451Z,47.84
2022-10-19T08:51:42.178Z,52.91
2022-10-19T08:54:56.238Z,54.63
2022-10-19T08:58:27.988Z,58.22
2022-10-19T09:01:48.078Z,60.47
2022-10-19T09:04:58.415Z,59.83
2022-10-19T09:08:01.283Z,58.03
2022-10-19T09:11:03.900Z,59.68
2022-10-19T09:17:43.114Z,58.85
2022-10-19T09:24:37.932Z,58.48
2022-10-19T09:27:43.505Z,55.73
2022-10-19T09:30:51.613Z,53.73
2022-10-19T09:41:21.509Z,49.33
2022-10-19T09:58:54.181Z,51.46
2022-10-19T10:02:04.164Z,51.41
2022-10-19T10:05:15.389Z,52.11
2022-10-19T10:08:21.192Z,52.61
2022-10-19T10:11:36.086Z,51.77
2022-10-19T10:14:41.493Z,49.87
2022-10-19T10:17:47.685Z,46.99
2022-10-19T10:21:25.160Z,44.89
2022-10-19T10:24:31.441Z,45.33
2022-10-19T10:27:39.103Z,47.15
2022-10-19T10:30:46.216Z,46.11
2022-10-19T10:33:55.590Z,48.69
2022-10-19T10:36:58.947Z,46.32
2022-10-19T10:40:03.858Z,39.62
2022-10-19T10:43:17.647Z,36.33
2022-10-19T10:46:24.956Z,35.02
2022-10-19T10:49:34.079Z,35.77
2022-10-19T10:56:33.914Z,40.37
2022-10-19T10:59:49.725Z,42.45
2022-10-19T11:03:00.904Z,36.16
2022-10-19T11:06:03.741Z,33.85
2022-10-19T11:09:42.506Z,35.75
2022-10-19T11:12:56.241Z,40.10
2022-10-19T11:16:38.619Z,41.55
2022-10-19T11:19:44.499Z,40.52
2022-10-19T11:23:17.221Z,40.58
2022-10-19T11:27:14.257Z,40.30
2022-10-19T11:30:20.644Z,40.30
2022-10-19T11:34:03.438Z,42.19
2022-10-19T11:37:31.203Z,41.84
2022-10-19T11:41:22.346Z,42.35
2022-10-19T11:44:40.532Z,43.12
2022-10-19T11:48:17.384Z,41.98
2022-10-19T11:51:41.542Z,44.96
2022-10-19T11:55:08.708Z,44.84
2022-10-19T11:58:52.033Z,44.82
2022-10-19T12:01:55.029Z,45.27
2022-10-19T12:05:02.072Z,44.97
2022-10-19T12:08:14.315Z,44.79
2022-10-19T12:11:38.970Z,46.06
2022-10-19T12:14:45.210Z,46.80
2022-10-19T12:17:51.874Z,47.07
2022-10-19T12:20:59.357Z,45.58
2022-10-19T12:24:06.403Z,44.64
2022-10-19T12:27:14.829Z,42.99
2022-10-19T12:30:23.722Z,43.17
2022-10-19T12:33:53.410Z,44.96
2022-10-19T12:37:20.721Z,44.54
2022-10-19T12:40:36.331Z,44.67
2022-10-19T12:43:51.711Z,44.89
2022-10-19T12:51:00.655Z,46.17
2022-10-19T12:54:10.649Z,45.04
2022-10-19T12:57:30.418Z,45.42
2022-10-19T13:00:38.269Z,44.74
2022-10-19T13:03:44.481Z,44.94
2022-10-19T13:06:49.447Z,44.11
2022-10-19T13:10:01.290Z,43.42
2022-10-19T13:13:04.265Z,43.63
2022-10-19T13:16:29.590Z,44.75
2022-10-19T13:19:35.025Z,44.55
2022-10-19T13:22:37.782Z,44.41
2022-10-19T13:25:41.737Z,44.35
2022-10-19T13:29:11.967Z,44.35
2022-10-19T13:32:37.240Z,43.34
2022-10-19T13:43:03.562Z,42.81
2022-10-19T13:54:04.056Z,44.53
2022-10-19T13:57:15.281Z,45.16
2022-10-19T14:00:30.419Z,44.27
2022-10-19T14:03:54.545Z,45.34
2022-10-19T14:07:07.632Z,46.35
2022-10-19T14:10:19.306Z,46.51
2022-10-19T14:13:22.355Z,48.22
2022-10-19T14:16:25.068Z,48.45
2022-10-19T14:19:42.094Z,48.70
2022-10-19T14:26:43.122Z,49.59
2022-10-19T14:29:49.412Z,50.80
2022-10-19T14:32:55.731Z,51.37
2022-10-19T14:36:01.551Z,51.33
2022-10-19T14:39:04.889Z,51.02
2022-10-19T14:42:10.511Z,51.61
2022-10-19T14:45:22.958Z,51.02
2022-10-19T14:48:25.718Z,51.58
2022-10-19T14:52:08.169Z,49.27
2022-10-19T14:55:17.903Z,48.94
2022-10-19T14:58:23.716Z,48.77
2022-10-19T15:01:28.938Z,48.17
2022-10-19T15:04:36.954Z,48.40
2022-10-19T15:08:01.887Z,48.47
2022-10-19T15:11:41.790Z,49.43
2022-10-19T15:14:46.119Z,48.97
2022-10-19T15:17:52.269Z,49.59
2022-10-19T15:21:17.970Z,50.50
2022-10-19T15:24:27.637Z,51.61
2022-10-19T15:27:47.212Z,51.89
